Time;durP1;ratioP1;P1;durP2;ratioP2;P2;SDS_P1;SDS_P2;PMS_P1;PMS_P2;Temp;Humidity;BMP_temperature;BMP_pressure;BME280_temperature;BME280_humidity;BME280_pressure;Samples;Min_cycle;Max_cycle;Signal;HPM_P1;HPM_P2
2023/06/08 00:02:19;;;;;;;12.80;12.00;;;19.50;99.90;;;;;;5003337;28;20377;-76
2023/06/08 00:04:46;;;;;;;14.40;12.97;;;19.60;99.90;;;;;;5018825;28;20212;-77
2023/06/08 00:07:16;;;;;;;11.57;10.37;;;19.60;99.90;;;;;;5025303;28;20191;-76
2023/06/08 00:09:42;;;;;;;13.90;12.67;;;19.60;99.90;;;;;;5010583;28;20463;-76
2023/06/08 00:12:08;;;;;;;15.00;13.70;;;19.60;99.90;;;;;;5012697;28;20460;-76
2023/06/08 00:14:35;;;;;;;13.63;12.60;;;19.60;99.90;;;;;;5012294;28;21007;-76
2023/06/08 00:17:03;;;;;;;13.57;12.50;;;19.50;99.90;;;;;;5016400;28;20418;-76
2023/06/08 00:19:36;;;;;;;12.93;12.03;;;19.40;99.90;;;;;;5009433;28;20424;-76
2023/06/08 00:22:07;;;;;;;13.50;12.10;;;19.30;99.90;;;;;;5031941;28;20438;-77
2023/06/08 00:24:33;;;;;;;14.00;12.83;;;19.30;99.90;;;;;;5017736;28;20566;-77
2023/06/08 00:26:59;;;;;;;12.37;11.53;;;19.20;99.90;;;;;;4998748;28;20957;-77
2023/06/08 00:29:26;;;;;;;12.37;11.50;;;19.10;99.90;;;;;;5014767;28;20455;-77
2023/06/08 00:31:52;;;;;;;13.57;12.47;;;19.10;99.90;;;;;;5018423;28;20371;-77
2023/06/08 00:34:18;;;;;;;13.70;12.53;;;19.10;99.90;;;;;;5012918;28;20449;-76
2023/06/08 00:36:43;;;;;;;11.47;10.73;;;19.00;99.90;;;;;;5020887;28;20946;-76
2023/06/08 00:39:09;;;;;;;13.43;12.00;;;19.00;99.90;;;;;;5007366;28;20530;-78
2023/06/08 00:41:35;;;;;;;14.70;13.20;;;18.90;99.90;;;;;;5023782;28;20256;-77
2023/06/08 00:44:00;;;;;;;13.63;12.47;;;19.00;99.90;;;;;;5013557;28;20337;-76
2023/06/08 00:46:30;;;;;;;12.40;11.33;;;18.90;99.90;;;;;;5018819;28;20195;-76
2023/06/08 00:48:57;;;;;;;13.17;11.90;;;18.90;99.90;;;;;;5003936;28;20190;-76
2023/06/08 00:51:24;;;;;;;12.30;11.37;;;18.90;99.90;;;;;;5023453;28;20495;-76
2023/06/08 00:53:51;;;;;;;11.47;10.53;;;18.90;99.90;;;;;;5007139;28;20966;-76
2023/06/08 00:56:18;;;;;;;12.33;11.30;;;19.00;99.90;;;;;;5020359;28;20457;-76
2023/06/08 00:58:48;;;;;;;13.17;11.93;;;19.00;99.90;;;;;;5021347;28;21019;-77
2023/06/08 01:01:17;;;;;;;12.30;11.40;;;18.80;99.90;;;;;;5021686;28;20784;-77
2023/06/08 01:03:46;;;;;;;13.47;11.90;;;18.80;99.90;;;;;;5029050;28;20528;-77
2023/06/08 01:06:16;;;;;;;13.10;11.80;;;18.70;99.90;;;;;;5037242;28;20435;-77
2023/06/08 01:08:52;;;;;;;15.53;13.97;;;18.70;99.90;;;;;;5028656;28;20455;-76
2023/06/08 01:11:40;;;;;;;12.80;11.70;;;18.70;99.90;;;;;;5020477;28;20434;-76
2023/06/08 01:14:19;;;;;;;13.70;12.43;;;18.60;99.90;;;;;;5007270;28;20951;-76
2023/06/08 01:16:51;;;;;;;12.10;10.90;;;18.60;99.90;;;;;;5021459;28;20516;-76
2023/06/08 01:19:28;;;;;;;13.00;11.70;;;18.60;99.90;;;;;;5008816;28;20440;-77
2023/06/08 01:22:37;;;;;;;11.40;10.40;;;18.50;99.90;;;;;;5015433;28;20473;-76
2023/06/08 01:25:05;;;;;;;11.90;10.80;;;18.50;99.90;;;;;;4990665;28;20890;-76
2023/06/08 01:27:36;;;;;;;11.77;11.00;;;18.40;99.90;;;;;;5013631;28;20523;-76
2023/06/08 01:30:03;;;;;;;11.97;10.70;;;18.40;99.90;;;;;;5015056;28;20452;-75
2023/06/08 01:32:29;;;;;;;12.37;11.27;;;18.40;99.90;;;;;;5003542;28;20739;-76
2023/06/08 01:34:55;;;;;;;12.67;11.57;;;18.40;99.90;;;;;;5015726;28;20541;-77
2023/06/08 01:37:32;;;;;;;14.80;11.60;;;18.30;99.90;;;;;;5023255;28;20262;-76
2023/06/08 01:40:18;;;;;;;12.73;11.43;;;18.10;99.90;;;;;;5010034;28;21017;-77
2023/06/08 01:42:48;;;;;;;11.83;10.73;;;18.10;99.90;;;;;;5008469;28;20420;-75
2023/06/08 01:45:20;;;;;;;11.97;10.97;;;18.10;99.90;;;;;;5010314;28;20466;-76
2023/06/08 01:47:54;;;;;;;14.87;13.43;;;18.00;99.90;;;;;;5013362;28;20474;-76
2023/06/08 01:50:21;;;;;;;13.07;10.27;;;18.00;99.90;;;;;;5006060;28;20431;-76
2023/06/08 01:52:47;;;;;;;12.13;11.00;;;18.10;99.90;;;;;;5018316;28;20442;-76
2023/06/08 01:55:17;;;;;;;13.13;11.73;;;18.10;99.90;;;;;;5006079;28;20449;-76
2023/06/08 01:57:43;;;;;;;12.80;11.57;;;18.00;99.90;;;;;;5020618;28;20422;-77
2023/06/08 02:00:09;;;;;;;13.70;12.20;;;18.00;99.90;;;;;;5015267;28;21045;-77
2023/06/08 02:02:36;;;;;;;11.70;10.70;;;18.00;99.90;;;;;;5019063;28;20469;-76
2023/06/08 02:05:02;;;;;;;13.20;11.40;;;18.00;99.90;;;;;;5003578;28;20910;-77
2023/06/08 02:07:28;;;;;;;12.97;11.60;;;18.00;99.90;;;;;;5019573;28;20494;-77
2023/06/08 02:09:53;;;;;;;13.03;11.67;;;17.90;99.90;;;;;;5009252;28;20251;-76
2023/06/08 02:12:19;;;;;;;12.43;11.17;;;17.80;99.90;;;;;;5018350;28;20379;-76
2023/06/08 02:14:46;;;;;;;14.57;11.90;;;17.90;99.90;;;;;;5017505;28;20203;-78
2023/06/08 02:17:13;;;;;;;12.37;11.40;;;17.80;99.90;;;;;;5023828;28;20187;-77
2023/06/08 02:19:39;;;;;;;13.23;11.57;;;17.90;99.90;;;;;;5001957;28;21021;-76
2023/06/08 02:22:05;;;;;;;15.03;11.80;;;17.70;99.90;;;;;;5014581;28;20486;-77
2023/06/08 02:24:30;;;;;;;12.27;11.10;;;17.70;99.90;;;;;;5010005;28;20716;-76
2023/06/08 02:26:56;;;;;;;16.20;11.87;;;17.70;99.90;;;;;;5019688;28;20481;-77
2023/06/08 02:29:23;;;;;;;14.53;12.70;;;17.50;99.90;;;;;;5016107;28;20204;-76
2023/06/08 02:31:49;;;;;;;13.87;11.17;;;17.50;99.90;;;;;;5015413;28;20450;-77
2023/06/08 02:34:15;;;;;;;13.23;11.00;;;17.50;99.90;;;;;;5011798;28;20469;-76
2023/06/08 02:36:42;;;;;;;12.97;11.87;;;17.50;99.90;;;;;;5021623;28;20180;-76
2023/06/08 02:39:07;;;;;;;13.33;11.67;;;17.30;99.90;;;;;;5020882;28;20444;-76
2023/06/08 02:41:33;;;;;;;16.13;12.27;;;17.20;99.90;;;;;;5027310;28;20431;-76
2023/06/08 02:43:59;;;;;;;11.30;10.30;;;17.20;99.90;;;;;;5012996;28;20223;-76
2023/06/08 02:46:24;;;;;;;12.80;11.07;;;17.30;99.90;;;;;;5017814;28;20164;-77
2023/06/08 02:48:50;;;;;;;12.63;11.40;;;17.30;99.90;;;;;;5014420;28;20575;-75
2023/06/08 02:51:16;;;;;;;15.20;10.23;;;17.20;99.90;;;;;;5021942;28;20538;-77
2023/06/08 02:53:42;;;;;;;12.90;11.70;;;17.40;99.90;;;;;;5001878;28;20531;-77
2023/06/08 02:56:08;;;;;;;13.37;12.00;;;17.40;99.90;;;;;;5021067;28;20416;-77
2023/06/08 02:58:33;;;;;;;12.40;11.20;;;17.30;99.90;;;;;;5023023;28;20204;-76
2023/06/08 03:01:00;;;;;;;13.03;11.80;;;17.40;99.90;;;;;;5042954;28;20207;-77
2023/06/08 03:03:27;;;;;;;14.37;11.37;;;17.30;99.90;;;;;;5027479;28;20184;-76
2023/06/08 03:05:58;;;;;;;18.47;13.67;;;17.20;99.90;;;;;;5022034;28;20447;-76
2023/06/08 03:08:28;;;;;;;13.53;12.20;;;17.10;99.90;;;;;;5017181;28;20996;-76
2023/06/08 03:10:54;;;;;;;18.00;11.33;;;17.20;99.90;;;;;;4996615;28;20823;-76
2023/06/08 03:13:21;;;;;;;16.93;13.17;;;17.20;99.90;;;;;;5010920;28;20427;-76
2023/06/08 03:15:47;;;;;;;13.73;12.00;;;17.10;99.90;;;;;;5015346;28;20443;-76
2023/06/08 03:18:12;;;;;;;12.77;11.50;;;17.10;99.90;;;;;;5010658;28;20506;-76
2023/06/08 03:20:40;;;;;;;12.53;11.23;;;17.00;99.90;;;;;;5019699;28;20188;-76
2023/06/08 03:23:06;;;;;;;15.87;11.43;;;16.90;99.90;;;;;;5004898;28;20204;-76
2023/06/08 03:25:33;;;;;;;13.00;11.57;;;16.90;99.90;;;;;;4997636;28;20525;-76
2023/06/08 03:27:59;;;;;;;12.17;11.07;;;16.90;99.90;;;;;;5012104;28;21025;-76
2023/06/08 03:30:25;;;;;;;13.27;11.93;;;16.90;99.90;;;;;;5017948;28;20455;-76
2023/06/08 03:32:51;;;;;;;13.60;12.20;;;17.00;99.90;;;;;;5026278;28;20184;-76
2023/06/08 03:35:18;;;;;;;12.70;11.50;;;16.90;99.90;;;;;;5016717;28;20446;-77
2023/06/08 03:37:43;;;;;;;12.97;11.67;;;16.90;99.90;;;;;;5001538;28;20508;-77
2023/06/08 03:40:09;;;;;;;12.90;11.60;;;16.90;99.90;;;;;;5010173;28;20708;-77
2023/06/08 03:42:35;;;;;;;14.07;12.57;;;16.80;99.90;;;;;;5016575;28;20188;-77
2023/06/08 03:45:00;;;;;;;12.00;10.83;;;16.90;99.90;;;;;;5012371;28;20810;-77
2023/06/08 03:47:26;;;;;;;16.57;11.37;;;16.70;99.90;;;;;;5017362;28;20192;-77
2023/06/08 03:49:52;;;;;;;16.30;12.23;;;16.60;99.90;;;;;;5007699;28;20667;-77
2023/06/08 03:52:18;;;;;;;14.90;13.53;;;16.40;99.90;;;;;;5014884;28;20260;-77
2023/06/08 03:54:44;;;;;;;19.53;12.60;;;16.50;99.90;;;;;;5000437;28;20200;-77
2023/06/08 03:57:10;;;;;;;14.47;12.60;;;16.50;99.90;;;;;;5013542;28;20443;-76
2023/06/08 03:59:36;;;;;;;15.77;12.40;;;16.50;99.90;;;;;;5015834;28;20445;-77
2023/06/08 04:02:02;;;;;;;14.17;12.27;;;16.60;99.90;;;;;;5013828;28;20957;-77
2023/06/08 04:04:29;;;;;;;15.00;12.63;;;16.60;99.90;;;;;;5009906;28;20494;-77
2023/06/08 04:07:00;;;;;;;14.13;12.80;;;16.60;99.90;;;;;;5015682;28;20192;-77
2023/06/08 04:09:29;;;;;;;14.87;12.30;;;16.60;99.90;;;;;;5027582;28;20614;-77
2023/06/08 04:11:56;;;;;;;15.70;13.07;;;16.40;99.90;;;;;;5019736;28;20438;-77
2023/06/08 04:14:22;;;;;;;15.50;13.90;;;16.30;99.90;;;;;;5017535;28;20446;-76
2023/06/08 04:16:48;;;;;;;13.87;12.20;;;16.20;99.90;;;;;;5025514;28;20905;-77
2023/06/08 04:19:14;;;;;;;13.63;12.33;;;16.20;99.90;;;;;;5012177;28;20456;-77
2023/06/08 04:21:39;;;;;;;18.13;13.33;;;16.20;99.90;;;;;;5021230;28;20440;-76
2023/06/08 04:24:05;;;;;;;14.57;12.20;;;16.20;99.90;;;;;;5009959;28;20212;-77
2023/06/08 04:26:32;;;;;;;17.80;13.10;;;16.20;99.90;;;;;;5014618;28;20320;-76
2023/06/08 04:28:58;;;;;;;16.97;12.60;;;16.20;99.90;;;;;;5018495;28;20470;-76
2023/06/08 04:31:23;;;;;;;18.03;12.47;;;16.30;99.90;;;;;;5015101;28;20448;-78
2023/06/08 04:33:49;;;;;;;17.47;13.23;;;16.20;99.90;;;;;;5016686;28;20198;-77
2023/06/08 04:36:15;;;;;;;16.53;12.17;;;16.30;99.90;;;;;;5012240;28;20904;-78
2023/06/08 04:38:41;;;;;;;16.13;12.33;;;16.30;99.90;;;;;;5017333;28;20212;-77
2023/06/08 04:41:07;;;;;;;14.23;12.37;;;16.40;99.90;;;;;;5019906;28;20407;-77
2023/06/08 04:43:36;;;;;;;17.47;12.90;;;16.30;99.90;;;;;;5010676;28;20265;-76
2023/06/08 04:46:04;;;;;;;13.77;12.70;;;16.30;99.90;;;;;;5011574;28;20432;-75
2023/06/08 04:48:33;;;;;;;12.17;11.17;;;16.20;99.90;;;;;;5012633;28;20438;-76
2023/06/08 04:51:01;;;;;;;15.33;13.73;;;16.20;99.90;;;;;;5013513;28;20763;-76
2023/06/08 04:53:26;;;;;;;13.60;12.40;;;16.20;99.90;;;;;;5009789;28;20942;-76
2023/06/08 04:55:57;;;;;;;15.90;12.73;;;16.20;99.90;;;;;;5024512;28;20488;-77
2023/06/08 04:58:24;;;;;;;14.20;11.73;;;16.30;99.90;;;;;;5028147;28;20265;-77
2023/06/08 05:00:50;;;;;;;14.90;12.10;;;16.30;99.90;;;;;;5023231;28;20443;-77
2023/06/08 05:03:15;;;;;;;16.90;13.10;;;16.30;99.90;;;;;;5023497;28;20422;-78
2023/06/08 05:05:42;;;;;;;16.30;12.23;;;16.30;99.90;;;;;;5019296;28;20481;-77
2023/06/08 05:08:07;;;;;;;22.20;13.90;;;16.30;99.90;;;;;;5020330;28;20223;-77
2023/06/08 05:10:33;;;;;;;16.90;13.43;;;16.40;99.90;;;;;;5014887;28;20446;-76
2023/06/08 05:12:59;;;;;;;16.60;12.30;;;16.50;99.90;;;;;;5007546;28;20444;-77
2023/06/08 05:15:25;;;;;;;13.30;12.00;;;16.70;99.90;;;;;;5011402;28;20261;-78
2023/06/08 05:17:52;;;;;;;17.27;13.00;;;16.70;99.90;;;;;;5012225;28;20423;-76
2023/06/08 05:20:18;;;;;;;17.53;14.17;;;16.80;99.90;;;;;;5011986;28;20526;-76
2023/06/08 05:22:44;;;;;;;17.37;12.47;;;16.70;99.90;;;;;;5018967;28;20517;-76
2023/06/08 05:25:10;;;;;;;15.10;13.50;;;16.80;99.90;;;;;;5017815;28;20559;-77
2023/06/08 05:27:35;;;;;;;15.07;13.60;;;16.70;99.90;;;;;;5023138;28;20191;-77
2023/06/08 05:30:01;;;;;;;14.20;12.70;;;16.90;99.90;;;;;;5020939;28;20258;-77
2023/06/08 05:32:26;;;;;;;14.97;12.10;;;17.10;99.90;;;;;;4997603;28;20235;-76
2023/06/08 05:34:52;;;;;;;13.10;11.43;;;17.30;99.90;;;;;;5011302;28;20674;-76
2023/06/08 05:37:17;;;;;;;16.70;13.40;;;17.50;99.90;;;;;;5007981;28;20275;-76
2023/06/08 05:39:43;;;;;;;12.70;11.50;;;17.70;99.90;;;;;;5003968;28;20659;-77
2023/06/08 05:42:08;;;;;;;13.90;12.30;;;18.00;99.90;;;;;;5013403;28;20193;-77
2023/06/08 05:44:34;;;;;;;12.97;11.87;;;18.40;99.90;;;;;;5006341;28;20214;-76
2023/06/08 05:46:59;;;;;;;14.03;12.80;;;18.60;99.90;;;;;;5020109;28;20176;-77
2023/06/08 05:49:26;;;;;;;15.77;13.63;;;18.20;99.90;;;;;;5016737;28;20254;-77
2023/06/08 05:51:51;;;;;;;21.23;13.37;;;17.80;99.90;;;;;;5020168;28;20172;-76
2023/06/08 05:54:17;;;;;;;16.57;13.10;;;17.80;99.90;;;;;;5013450;28;20453;-76
2023/06/08 05:56:42;;;;;;;15.97;13.57;;;17.80;99.90;;;;;;5017568;28;20207;-77
2023/06/08 05:59:08;;;;;;;16.00;13.40;;;17.70;99.90;;;;;;5018835;28;20274;-77
2023/06/08 06:01:33;;;;;;;15.30;13.53;;;17.70;99.90;;;;;;5023569;28;20295;-77
2023/06/08 06:03:59;;;;;;;15.37;13.97;;;17.70;99.90;;;;;;5020011;28;20216;-76
2023/06/08 06:06:25;;;;;;;16.77;12.60;;;17.70;99.90;;;;;;5022407;28;20259;-77
2023/06/08 06:08:50;;;;;;;21.80;13.97;;;17.70;99.90;;;;;;5021793;28;20317;-77
2023/06/08 06:11:16;;;;;;;13.63;12.40;;;17.80;99.90;;;;;;5018581;28;20192;-77
2023/06/08 06:13:41;;;;;;;13.47;12.33;;;18.00;99.90;;;;;;5020134;28;20204;-77
2023/06/08 06:16:07;;;;;;;14.60;12.10;;;18.30;99.90;;;;;;5013230;28;20207;-76
2023/06/08 06:18:32;;;;;;;13.73;12.07;;;18.50;99.90;;;;;;5018917;28;20188;-77
2023/06/08 06:20:59;;;;;;;16.70;12.47;;;18.40;99.90;;;;;;5021278;28;20207;-77
2023/06/08 06:23:24;;;;;;;14.50;12.93;;;18.50;99.90;;;;;;5019833;28;20957;-76
2023/06/08 06:25:51;;;;;;;15.53;12.37;;;18.60;99.90;;;;;;5020757;28;20203;-76
2023/06/08 06:28:16;;;;;;;13.97;12.57;;;18.60;99.90;;;;;;5011607;28;20195;-77
2023/06/08 06:30:42;;;;;;;12.33;11.20;;;18.70;99.90;;;;;;5002495;28;20598;-77
2023/06/08 06:33:07;;;;;;;15.23;12.60;;;18.70;99.90;;;;;;4996276;28;20633;-76
2023/06/08 06:35:33;;;;;;;13.27;12.17;;;18.80;99.90;;;;;;5005619;28;20203;-76
2023/06/08 06:37:58;;;;;;;14.13;12.90;;;18.50;99.90;;;;;;5000872;28;20188;-78
2023/06/08 06:40:24;;;;;;;16.57;12.40;;;18.60;99.90;;;;;;5023186;28;20183;-78
2023/06/08 06:42:50;;;;;;;13.80;12.40;;;18.80;99.90;;;;;;5016570;28;20196;-77
2023/06/08 06:45:15;;;;;;;15.00;12.90;;;19.00;99.90;;;;;;5016393;28;20254;-78
2023/06/08 06:47:41;;;;;;;12.77;11.67;;;19.10;99.90;;;;;;5004201;28;20203;-78
2023/06/08 06:50:07;;;;;;;14.37;12.33;;;19.90;99.90;;;;;;5047064;28;20178;-79
2023/06/08 06:52:33;;;;;;;11.83;10.97;;;21.00;99.90;;;;;;5011178;28;20450;-77
2023/06/08 06:55:02;;;;;;;12.03;11.13;;;21.80;99.90;;;;;;5026283;28;20434;-78
2023/06/08 06:57:28;;;;;;;13.70;12.23;;;22.80;99.90;;;;;;5015616;28;20443;-77
2023/06/08 06:59:54;;;;;;;11.67;10.57;;;23.10;99.90;;;;;;5018694;28;20461;-78
2023/06/08 07:02:19;;;;;;;13.40;11.57;;;23.40;99.90;;;;;;5017382;28;20961;-78
2023/06/08 07:04:45;;;;;;;12.10;11.00;;;23.70;99.90;;;;;;5018202;28;20227;-78
2023/06/08 07:07:10;;;;;;;12.53;11.43;;;23.10;99.90;;;;;;5023217;28;20276;-77
2023/06/08 07:09:36;;;;;;;12.20;11.10;;;23.70;99.90;;;;;;5007183;28;20223;-78
2023/06/08 07:12:02;;;;;;;13.63;12.70;;;23.90;99.90;;;;;;5016438;28;20663;-78
2023/06/08 07:14:27;;;;;;;13.20;11.53;;;24.20;99.50;;;;;;5006908;28;20327;-77
2023/06/08 07:16:53;;;;;;;13.27;11.90;;;24.30;98.50;;;;;;5003586;28;20222;-78
2023/06/08 07:19:18;;;;;;;12.37;10.97;;;24.20;98.70;;;;;;5021976;28;20203;-77
2023/06/08 07:21:44;;;;;;;12.23;11.03;;;24.40;98.30;;;;;;5026451;28;20199;-77
2023/06/08 07:24:10;;;;;;;12.00;10.97;;;24.40;97.90;;;;;;4988761;28;20204;-78
2023/06/08 07:26:35;;;;;;;12.73;11.50;;;24.60;97.40;;;;;;5024047;28;20517;-77
2023/06/08 07:29:02;;;;;;;12.07;10.93;;;24.20;97.80;;;;;;4995453;28;20255;-77
2023/06/08 07:31:28;;;;;;;13.10;12.10;;;24.40;98.10;;;;;;5026818;28;20183;-78
2023/06/08 07:33:56;;;;;;;11.80;10.90;;;24.70;97.00;;;;;;5013613;28;20433;-78
2023/06/08 07:36:22;;;;;;;13.43;12.27;;;24.80;97.20;;;;;;5022742;28;20212;-78
2023/06/08 07:38:51;;;;;;;14.03;12.70;;;24.80;96.60;;;;;;5016905;28;20484;-77
2023/06/08 07:41:18;;;;;;;12.73;11.80;;;24.90;96.60;;;;;;5021551;28;20191;-77
2023/06/08 07:43:44;;;;;;;12.57;11.47;;;;;;;;;;5017085;28;20437;-78
2023/06/08 07:46:10;;;;;;;10.80;10.10;;;26.50;94.30;;;;;;5020880;28;20924;-78
2023/06/08 07:48:35;;;;;;;11.73;10.70;;;27.20;92.50;;;;;;5024157;28;20442;-78
2023/06/08 07:51:01;;;;;;;14.53;10.90;;;27.60;91.50;;;;;;5026672;28;20430;-78
2023/06/08 07:53:37;;;;;;;9.87;9.20;;;27.80;89.70;;;;;;5013579;28;20635;-78
2023/06/08 07:56:03;;;;;;;10.20;9.47;;;27.70;90.00;;;;;;5014360;28;20615;-81
2023/06/08 07:58:30;;;;;;;11.90;11.00;;;27.80;88.70;;;;;;5013637;28;20797;-80
2023/06/08 08:00:56;;;;;;;10.63;9.93;;;27.20;87.50;;;;;;5018820;28;20953;-79
2023/06/08 08:03:21;;;;;;;10.17;9.47;;;26.70;90.00;;;;;;5023206;28;20433;-78
2023/06/08 08:05:49;;;;;;;9.30;8.77;;;26.60;90.30;;;;;;5025508;28;20207;-78
2023/06/08 08:08:15;;;;;;;11.30;10.40;;;26.70;89.80;;;;;;5018885;28;20309;-76
2023/06/08 08:10:41;;;;;;;9.70;9.10;;;26.30;90.90;;;;;;5025844;28;20425;-76
2023/06/08 08:13:07;;;;;;;10.20;9.40;;;26.50;89.10;;;;;;5012699;28;20820;-78
2023/06/08 08:15:33;;;;;;;9.53;8.93;;;26.00;90.00;;;;;;5017351;28;20196;-78
2023/06/08 08:17:58;;;;;;;9.40;8.70;;;25.90;90.90;;;;;;5012203;28;20439;-77
2023/06/08 08:20:24;;;;;;;11.23;10.33;;;26.70;89.40;;;;;;5013584;28;20183;-77
2023/06/08 08:22:49;;;;;;;10.37;9.77;;;26.50;89.50;;;;;;5012157;28;20199;-78
2023/06/08 08:25:15;;;;;;;10.90;10.03;;;26.30;90.20;;;;;;5027828;28;20223;-78
2023/06/08 08:27:40;;;;;;;10.07;9.27;;;26.90;89.00;;;;;;5016001;28;20260;-77
2023/06/08 08:30:06;;;;;;;10.00;9.30;;;27.40;86.70;;;;;;5020642;28;20218;-78
2023/06/08 08:32:32;;;;;;;10.20;9.47;;;27.20;83.60;;;;;;5017163;28;20782;-78
2023/06/08 08:34:58;;;;;;;10.80;9.90;;;27.40;84.20;;;;;;5020975;28;20475;-78
2023/06/08 08:37:23;;;;;;;10.77;10.00;;;27.30;84.80;;;;;;5016124;28;20201;-79
2023/06/08 08:39:49;;;;;;;11.53;10.33;;;27.20;84.30;;;;;;5007098;28;20224;-77
2023/06/08 08:42:21;;;;;;;9.80;9.10;;;26.50;86.50;;;;;;5026390;28;20211;-78
2023/06/08 08:44:49;;;;;;;9.40;8.73;;;27.10;85.40;;;;;;5048546;28;20443;-79
2023/06/08 08:47:15;;;;;;;8.93;8.40;;;27.10;85.80;;;;;;5024500;28;20488;-78
2023/06/08 08:49:43;;;;;;;10.33;8.43;;;28.60;81.90;;;;;;5017695;28;20439;-77
2023/06/08 08:52:09;;;;;;;10.57;9.70;;;28.90;78.70;;;;;;4995407;28;20473;-77
2023/06/08 08:54:38;;;;;;;10.60;9.80;;;28.80;77.60;;;;;;5021622;28;20430;-77
2023/06/08 08:57:06;;;;;;;9.73;8.93;;;28.30;78.30;;;;;;5013831;28;20427;-78
2023/06/08 08:59:33;;;;;;;10.50;9.70;;;28.10;77.90;;;;;;5017922;28;20470;-78
2023/06/08 09:01:58;;;;;;;9.87;9.07;;;28.20;77.50;;;;;;5014425;28;20524;-77
2023/06/08 09:04:24;;;;;;;9.57;8.97;;;28.80;76.10;;;;;;5016770;28;20520;-79
2023/06/08 09:06:51;;;;;;;9.40;8.87;;;29.80;73.20;;;;;;5012955;28;20270;-76
2023/06/08 09:09:17;;;;;;;10.23;9.50;;;29.10;72.50;;;;;;5019611;28;20287;-77
2023/06/08 09:11:58;;;;;;;12.00;9.53;;;28.20;74.60;;;;;;5015773;28;20539;-77
2023/06/08 09:14:25;;;;;;;10.00;9.30;;;29.10;73.40;;;;;;5010675;28;20420;-78
2023/06/08 09:16:51;;;;;;;9.60;8.87;;;29.20;72.90;;;;;;5019083;28;20435;-77
2023/06/08 09:19:16;;;;;;;10.13;9.43;;;30.10;70.50;;;;;;5011552;28;21062;-76
2023/06/08 09:21:43;;;;;;;8.63;8.20;;;;;;;;;;5013695;28;20202;-76
2023/06/08 09:24:14;;;;;;;10.80;9.90;;;31.50;63.00;;;;;;5011242;28;20212;-77
2023/06/08 09:26:56;;;;;;;9.00;8.50;;;31.90;60.40;;;;;;4997103;28;20438;-77
2023/06/08 09:29:41;;;;;;;10.27;9.67;;;32.20;59.50;;;;;;5016586;28;20539;-77
2023/06/08 09:32:09;;;;;;;9.17;8.77;;;33.10;58.20;;;;;;4998320;28;20509;-78
2023/06/08 09:34:55;;;;;;;9.10;8.30;;;33.00;56.70;;;;;;5018850;28;20434;-77
2023/06/08 09:37:29;;;;;;;9.93;9.30;;;33.50;56.50;;;;;;5012555;28;20957;-78
2023/06/08 09:39:55;;;;;;;9.47;8.83;;;33.10;55.90;;;;;;5020059;28;20427;-77
2023/06/08 09:42:21;;;;;;;9.83;9.13;;;33.10;55.20;;;;;;5020980;28;20500;-77
2023/06/08 09:44:47;;;;;;;10.77;10.17;;;33.00;55.40;;;;;;5007176;28;20993;-78
2023/06/08 09:47:21;;;;;;;10.83;10.03;;;33.30;54.90;;;;;;5021829;28;20455;-78
2023/06/08 09:49:55;;;;;;;11.63;10.87;;;32.10;55.30;;;;;;5013587;28;20246;-79
2023/06/08 09:52:27;;;;;;;10.13;9.23;;;30.60;57.40;;;;;;5024417;28;20757;-76
2023/06/08 09:54:52;;;;;;;10.77;10.10;;;32.10;56.50;;;;;;5014766;28;20569;-77
2023/06/08 09:57:22;;;;;;;10.07;9.57;;;32.70;55.50;;;;;;5013852;28;21296;-76
2023/06/08 09:59:53;;;;;;;10.63;9.93;;;33.30;54.90;;;;;;5017784;28;20222;-76
2023/06/08 10:02:18;;;;;;;11.17;10.37;;;34.00;53.80;;;;;;5012240;28;20446;-76
2023/06/08 10:04:52;;;;;;;11.70;10.80;;;34.50;53.30;;;;;;5018569;28;20976;-78
2023/06/08 10:07:24;;;;;;;12.30;11.50;;;34.00;52.80;;;;;;5014402;28;20216;-76
2023/06/08 10:10:04;;;;;;;12.20;11.30;;;32.60;53.20;;;;;;5016258;28;20459;-76
2023/06/08 10:12:30;;;;;;;11.27;10.43;;;31.50;55.00;;;;;;5018960;28;20924;-78
2023/06/08 10:14:57;;;;;;;10.40;9.80;;;32.60;54.50;;;;;;5019084;28;20430;-77
2023/06/08 10:17:25;;;;;;;11.40;10.57;;;33.70;53.20;;;;;;5020520;28;20211;-76
2023/06/08 10:19:51;;;;;;;11.37;10.60;;;34.70;52.50;;;;;;5013699;28;20453;-77
2023/06/08 10:22:18;;;;;;;9.57;9.07;;;33.90;51.60;;;;;;5015416;28;20442;-78
2023/06/08 10:24:48;;;;;;;11.27;10.47;;;34.20;52.20;;;;;;5014273;28;20462;-76
2023/06/08 10:27:28;;;;;;;9.77;9.17;;;34.50;51.50;;;;;;5016060;28;20531;-77
2023/06/08 10:29:59;;;;;;;10.40;9.70;;;33.80;51.90;;;;;;5008026;28;20669;-78
2023/06/08 10:32:36;;;;;;;9.80;9.30;;;32.80;52.50;;;;;;5018865;28;20546;-78
2023/06/08 10:35:06;;;;;;;10.70;9.90;;;32.60;52.90;;;;;;5012222;28;20482;-77
2023/06/08 10:37:34;;;;;;;11.20;10.53;;;32.20;53.00;;;;;;5040179;28;20450;-77
2023/06/08 10:40:13;;;;;;;11.63;10.70;;;32.30;53.00;;;;;;5040238;28;20450;-77
2023/06/08 10:42:55;;;;;;;11.23;10.53;;;32.80;52.70;;;;;;5003491;28;20529;-79
2023/06/08 10:45:31;;;;;;;9.63;9.13;;;32.00;52.80;;;;;;5001976;28;20458;-78
2023/06/08 10:48:02;;;;;;;11.30;10.30;;;32.80;53.20;;;;;;5017283;28;20420;-78
2023/06/08 10:50:34;;;;;;;9.67;9.07;;;33.30;52.40;;;;;;5027884;28;20457;-78
2023/06/08 10:53:01;;;;;;;10.07;9.47;;;34.30;51.60;;;;;;5030626;28;21008;-75
2023/06/08 10:55:30;;;;;;;8.90;8.40;;;33.90;50.70;;;;;;5017479;28;21021;-78
2023/06/08 10:58:20;;;;;;;10.10;9.30;;;34.30;51.20;;;;;;5021949;28;20411;-78
2023/06/08 11:00:52;;;;;;;10.30;9.50;;;34.10;51.20;;;;;;5018186;28;20522;-77
2023/06/08 11:03:20;;;;;;;10.20;9.50;;;35.10;50.80;;;;;;5026047;28;20428;-78
2023/06/08 11:05:53;;;;;;;12.20;11.30;;;33.80;50.20;;;;;;5018666;28;20481;-77
2023/06/08 11:08:19;;;;;;;9.13;8.63;;;33.60;51.50;;;;;;5024779;28;20458;-78
2023/06/08 11:10:52;;;;;;;10.10;9.60;;;34.80;50.60;;;;;;5004968;28;20505;-77
2023/06/08 11:13:17;;;;;;;10.30;9.50;;;35.00;49.80;;;;;;5022855;28;20427;-78
2023/06/08 11:15:47;;;;;;;11.00;10.10;;;34.70;49.80;;;;;;4994933;28;20425;-78
2023/06/08 11:18:13;;;;;;;11.07;10.27;;;34.40;50.40;;;;;;5002693;28;20186;-78
2023/06/08 11:20:41;;;;;;;10.27;9.50;;;35.30;49.70;;;;;;5015441;28;20501;-78
2023/06/08 11:23:11;;;;;;;9.27;8.67;;;35.70;49.10;;;;;;5014873;28;20202;-77
2023/06/08 11:25:37;;;;;;;11.47;10.87;;;35.80;48.60;;;;;;5018022;28;20472;-77
2023/06/08 11:28:04;;;;;;;9.10;8.63;;;35.50;48.80;;;;;;5021563;28;20423;-78
2023/06/08 11:30:31;;;;;;;10.07;9.17;;;35.40;48.90;;;;;;5011859;28;20522;-77
2023/06/08 11:32:58;;;;;;;9.60;9.20;;;35.00;49.20;;;;;;4997692;28;20431;-78
2023/06/08 11:35:27;;;;;;;10.80;10.03;;;35.50;48.90;;;;;;5018262;28;20454;-77
2023/06/08 11:37:56;;;;;;;16.67;15.40;;;34.80;49.00;;;;;;5024612;28;20490;-77
2023/06/08 11:40:22;;;;;;;10.00;9.30;;;34.50;49.70;;;;;;5005618;28;20452;-77
2023/06/08 11:42:49;;;;;;;10.30;9.67;;;35.20;48.90;;;;;;5021477;28;20964;-77
2023/06/08 11:45:15;;;;;;;9.47;8.77;;;35.60;48.30;;;;;;5017401;28;20490;-77
2023/06/08 11:47:42;;;;;;;9.90;9.30;;;35.70;48.40;;;;;;5003694;28;20453;-78
2023/06/08 11:50:09;;;;;;;10.10;9.40;;;35.80;48.30;;;;;;5013418;28;20516;-77
2023/06/08 11:52:38;;;;;;;10.40;9.80;;;35.20;48.70;;;;;;5018240;28;20446;-76
2023/06/08 11:55:12;;;;;;;9.80;9.20;;;35.50;48.50;;;;;;4998858;28;20759;-78
2023/06/08 11:57:42;;;;;;;9.03;8.43;;;35.60;48.20;;;;;;5019108;28;20427;-77
2023/06/08 12:00:14;;;;;;;10.90;10.30;;;35.40;48.10;;;;;;5002263;28;20793;-76
2023/06/08 12:02:40;;;;;;;9.60;9.10;;;33.30;49.10;;;;;;5009314;28;20447;-76
2023/06/08 12:05:15;;;;;;;9.40;9.00;;;33.40;49.90;;;;;;5021877;28;20851;-79
2023/06/08 12:08:16;;;;;;;9.40;8.80;;;33.60;49.20;;;;;;5018117;28;20540;-77
2023/06/08 12:10:43;;;;;;;9.87;9.27;;;33.40;49.30;;;;;;5021570;28;20409;-77
2023/06/08 12:13:18;;;;;;;10.30;9.80;;;34.20;48.80;;;;;;5019565;28;20422;-77
2023/06/08 12:15:49;;;;;;;10.03;9.33;;;34.60;48.50;;;;;;5020963;28;20775;-78
2023/06/08 12:18:17;;;;;;;9.97;9.40;;;34.90;48.40;;;;;;4992791;28;20789;-77
2023/06/08 12:20:44;;;;;;;9.13;8.73;;;34.80;47.30;;;;;;5013435;28;20417;-78
2023/06/08 12:23:12;;;;;;;8.60;8.20;;;34.80;47.30;;;;;;5012876;28;20462;-77
2023/06/08 12:25:37;;;;;;;9.43;8.93;;;34.80;47.80;;;;;;5021281;28;20482;-78
2023/06/08 12:28:03;;;;;;;9.93;9.33;;;35.10;47.70;;;;;;5023310;28;20430;-77
2023/06/08 12:30:29;;;;;;;9.23;8.70;;;34.20;48.50;;;;;;5034383;28;20211;-78
2023/06/08 12:32:58;;;;;;;9.93;9.43;;;34.40;48.30;;;;;;5034192;28;20192;-78
2023/06/08 12:35:24;;;;;;;8.73;8.40;;;34.10;48.60;;;;;;5018436;28;20742;-79